Time;durP1;ratioP1;P1;durP2;ratioP2;P2;SDS_P1;SDS_P2;PMS_P1;PMS_P2;Temp;Humidity;BMP_temperature;BMP_pressure;BME280_temperature;BME280_humidity;BME280_pressure;Samples;Min_cycle;Max_cycle;Signal;HPM_P1;HPM_P2
2021/10/07 05:52:04;;;;;;;6.60;4.35;;;;;;;;;;10481157;28;20427;-88
2021/10/07 05:57:06;;;;;;;8.40;6.28;;;;;;;;;;10453872;28;20076;-88
2021/10/07 06:02:07;;;;;;;4.20;3.45;;;;;;;;;;10458644;28;20192;-87
2021/10/07 06:07:21;;;;;;;9.05;7.03;;;;;;;;;;10460795;28;20033;-87
2021/10/07 06:12:23;;;;;;;3.90;3.20;;;;;;;;;;10452238;28;20079;-87
2021/10/07 06:17:24;;;;;;;4.68;3.47;;;;;;;;;;10452301;28;20025;-87
2021/10/07 06:22:25;;;;;;;;;;;;;;;;;;10451578;28;20021;-88
2021/10/07 06:27:26;;;;;;;10.68;8.40;;;;;;;;;;10452267;28;19916;-87
2021/10/07 06:32:27;;;;;;;;;;;;;;;;;;10449722;28;20021;-88
2021/10/07 06:37:28;;;;;;;12.60;9.68;;;;;;;;;;10449817;28;19912;-88
2021/10/07 06:42:29;;;;;;;9.02;7.10;;;;;;;;;;10450081;28;20092;-87
2021/10/07 06:47:30;;;;;;;11.80;8.85;;;;;;;;;;10450416;28;20041;-88
2021/10/07 06:52:31;;;;;;;7.45;6.10;;;;;;;;;;10455135;28;20025;-88
2021/10/07 06:57:32;;;;;;;8.32;6.35;;;;;;;;;;10453366;28;20040;-86
2021/10/07 07:02:53;;;;;;;9.63;7.63;;;;;;;;;;10431183;28;20036;-87
2021/10/07 07:07:54;;;;;;;5.60;4.72;;;;;;;;;;10423373;28;20029;-87
2021/10/07 07:13:30;;;;;;;9.15;6.55;;;;;;;;;;10423805;28;20060;-87
2021/10/07 07:18:32;;;;;;;10.25;8.50;;;;;;;;;;10424080;28;20025;-87
2021/10/07 07:23:33;;;;;;;10.73;8.82;;;;;;;;;;10422367;28;20037;-86
2021/10/07 07:28:34;;;;;;;11.80;8.82;;;;;;;;;;10422925;28;20029;-85
2021/10/07 07:33:35;;;;;;;12.63;10.45;;;;;;;;;;10431578;28;20451;-86
2021/10/07 07:38:35;;;;;;;;;;;;;;;;;;10420766;28;20091;-86
2021/10/07 07:43:49;;;;;;;14.32;11.07;;;;;;;;;;10422250;28;19948;-87
2021/10/07 07:48:50;;;;;;;14.05;11.40;;;;;;;;;;10422545;28;20037;-88
2021/10/07 07:53:52;;;;;;;14.30;11.10;;;;;;;;;;10423821;28;20037;-88
2021/10/07 07:58:53;;;;;;;14.57;11.77;;;;;;;;;;10422364;28;20048;-85
2021/10/07 08:03:54;;;;;;;17.27;12.55;;;;;;;;;;10431613;28;20036;-87
2021/10/07 08:08:56;;;;;;;16.98;11.88;;;;;;;;;;10422206;28;20040;-89
2021/10/07 08:13:58;;;;;;;16.05;11.63;;;;;;;;;;10420505;28;20036;-85
2021/10/07 08:18:59;;;;;;;15.18;11.32;;;;;;;;;;10432721;28;20025;-85
2021/10/07 08:29:10;;;;;;;16.02;11.32;;;;;;;;;;10387718;28;20049;-84
2021/10/07 08:40:24;;;;;;;16.05;11.52;;;;;;;;;;10390923;28;20022;-84
2021/10/07 08:45:37;;;;;;;14.10;11.27;;;;;;;;;;10391069;28;20026;-84
2021/10/07 08:50:46;;;;;;;14.25;10.98;;;;;;;;;;10401567;28;20032;-83
2021/10/07 14:48:46;;;;;;;4.63;3.70;;;;;;;;;;10309940;28;20114;-87
2021/10/07 15:21:47;;;;;;;7.50;4.30;;;;;;;;;;10392709;28;20038;-87
2021/10/07 16:27:53;;;;;;;6.15;4.30;;;;;;;;;;10343377;23;20071;-86
2021/10/07 16:38:20;;;;;;;5.35;4.35;;;;;;;;;;10310911;28;20039;-87
2021/10/07 16:43:22;;;;;;;6.57;4.90;;;;;;;;;;10308531;28;20113;-87
2021/10/07 16:54:03;;;;;;;5.03;4.35;;;;;;;;;;10223696;28;20369;-88
2021/10/07 16:59:18;;;;;;;6.63;4.60;;;;;;;;;;10313937;28;20041;-88
2021/10/07 17:04:24;;;;;;;7.57;5.22;;;;;;;;;;10311937;28;20046;-87
2021/10/07 17:09:56;;;;;;;6.40;5.07;;;;;;;;;;10320880;28;20043;-88
2021/10/07 17:15:30;;;;;;;8.77;6.32;;;;;;;;;;10314748;28;20122;-87
2021/10/07 17:20:36;;;;;;;5.75;4.78;;;;;;;;;;10327732;28;20035;-88
2021/10/07 17:37:13;;;;;;;6.07;5.07;;;;;;;;;;10317973;28;20027;-88
2021/10/07 17:42:56;;;;;;;7.43;5.50;;;;;;;;;;10180659;28;20023;-88
2021/10/07 17:48:24;;;;;;;9.32;7.65;;;;;;;;;;10277406;28;20086;-89
2021/10/07 17:53:32;;;;;;;9.57;7.05;;;;;;;;;;10202075;28;20145;-87
2021/10/07 17:58:44;;;;;;;10.90;8.25;;;;;;;;;;10304194;28;20035;-89
2021/10/07 18:04:24;;;;;;;10.07;8.35;;;;;;;;;;10306153;28;20058;-88
2021/10/07 18:09:26;;;;;;;7.88;6.13;;;;;;;;;;10296343;28;20042;-88
2021/10/07 18:14:33;;;;;;;10.57;8.50;;;;;;;;;;10295741;28;20055;-89
2021/10/07 18:19:39;;;;;;;12.43;9.48;;;;;;;;;;10307399;28;20034;-88
2021/10/07 18:30:25;;;;;;;11.30;9.48;;;;;;;;;;10324799;28;20035;-89
2021/10/07 18:35:48;;;;;;;11.02;8.77;;;;;;;;;;10311487;28;20504;-89
2021/10/07 18:40:54;;;;;;;9.43;7.70;;;;;;;;;;10297099;28;20481;-89
2021/10/07 18:51:49;;;;;;;9.35;7.55;;;;;;;;;;10310475;28;20420;-89
2021/10/07 19:19:41;;;;;;;12.17;9.57;;;;;;;;;;10312831;28;20015;-86
2021/10/07 19:30:39;;;;;;;24.73;21.85;;;;;;;;;;10340326;28;20087;-88
2021/10/07 19:41:33;;;;;;;32.83;28.05;;;;;;;;;;10308047;28;20058;-88
2021/10/07 19:46:48;;;;;;;31.13;26.13;;;;;;;;;;10315894;28;20038;-89
2021/10/07 19:52:12;;;;;;;32.72;27.13;;;;;;;;;;10281478;28;20603;-90
2021/10/07 20:09:02;;;;;;;25.13;20.77;;;;;;;;;;10299965;28;20034;-88
2021/10/07 20:14:44;;;;;;;26.25;21.85;;;;;;;;;;10279476;28;20039;-89
